Terminal Aerodrome Forecast
Issued by NWS

Home | Current Version | Previous Version | Graphics & Text | Print | Product List | Glossary On
Versions: 1 2 3 4 5 6 7 8 9 10 11 12 13 14 15 16 17 18
121
FTUS43 KBIS 171135
TAFMOT
TAF
KMOT 171135Z 1712/1812 26007KT P6SM FEW025
      TEMPO 1712/1714 4SM BR SCT030
     FM171400 25008KT P6SM FEW035
     FM172000 21009KT P6SM SCT220
     FM180000 18006KT P6SM SCT200=

USA.gov is the U.S. government's official web portal to all federal, state and local government web resources and services.